Time;durP1;ratioP1;P1;durP2;ratioP2;P2;SDS_P1;SDS_P2;PMS_P1;PMS_P2;Temp;Humidity;BMP_temperature;BMP_pressure;BME280_temperature;BME280_humidity;BME280_pressure;Samples;Min_cycle;Max_cycle;Signal;HPM_P1;HPM_P2
2023/10/31 00:00:23;;;;;;;10.02;2.97;;;24.70;99.90;;;;;;5013655;28;20026;-55
2023/10/31 00:02:49;;;;;;;7.13;2.13;;;24.70;99.90;;;;;;5013123;28;20034;-57
2023/10/31 00:05:15;;;;;;;4.93;1.75;;;24.70;99.90;;;;;;5013658;28;20034;-57
2023/10/31 00:07:41;;;;;;;8.20;1.83;;;24.70;99.90;;;;;;5013102;28;20064;-54
2023/10/31 00:10:07;;;;;;;3.05;1.70;;;24.70;99.90;;;;;;5013227;28;20032;-57
2023/10/31 00:12:32;;;;;;;5.18;1.88;;;24.70;99.90;;;;;;5012728;28;20022;-54
2023/10/31 00:14:58;;;;;;;4.55;1.70;;;24.70;99.90;;;;;;5013094;28;20444;-60
2023/10/31 00:17:24;;;;;;;4.22;1.73;;;24.80;99.90;;;;;;4995654;28;20026;-53
2023/10/31 00:19:50;;;;;;;5.35;2.20;;;24.70;99.90;;;;;;5013047;28;20053;-54
2023/10/31 00:22:16;;;;;;;5.35;1.73;;;24.70;99.90;;;;;;5011885;28;20030;-55
2023/10/31 00:24:42;;;;;;;4.78;1.45;;;24.70;99.90;;;;;;4999791;28;20026;-53
2023/10/31 00:27:08;;;;;;;3.20;1.52;;;24.70;99.90;;;;;;5013160;28;20025;-55
2023/10/31 00:29:33;;;;;;;2.83;1.60;;;24.70;99.90;;;;;;5012918;28;20025;-55
2023/10/31 00:31:59;;;;;;;6.45;2.38;;;24.70;99.90;;;;;;5012838;28;20026;-53
2023/10/31 00:34:25;;;;;;;5.75;1.80;;;24.70;99.90;;;;;;5013119;28;20376;-53
2023/10/31 00:36:51;;;;;;;3.28;1.90;;;24.70;99.90;;;;;;5013218;28;20104;-54
2023/10/31 00:39:16;;;;;;;6.65;2.13;;;24.70;99.90;;;;;;5012618;28;20109;-55
2023/10/31 00:41:46;;;;;;;3.35;1.60;;;24.70;99.90;;;;;;5012924;28;20374;-53
2023/10/31 00:44:12;;;;;;;3.40;1.80;;;24.70;99.90;;;;;;5012526;28;20193;-54
2023/10/31 00:46:38;;;;;;;3.10;1.50;;;24.70;99.90;;;;;;5012800;28;20014;-53
2023/10/31 00:49:04;;;;;;;5.40;1.67;;;24.70;99.90;;;;;;5012921;28;20029;-54
2023/10/31 00:51:30;;;;;;;7.55;1.88;;;24.70;99.90;;;;;;4995350;28;20061;-51
2023/10/31 00:53:55;;;;;;;4.15;1.52;;;24.80;99.90;;;;;;5012032;28;20026;-49
2023/10/31 00:56:21;;;;;;;2.20;1.63;;;24.70;99.90;;;;;;5012680;28;20137;-51
2023/10/31 00:58:47;;;;;;;3.05;1.38;;;24.80;99.90;;;;;;4993664;28;20045;-51
2023/10/31 01:01:13;;;;;;;3.47;1.75;;;24.70;99.90;;;;;;5032207;23;20069;-49
2023/10/31 01:03:39;;;;;;;3.05;1.80;;;24.80;99.90;;;;;;5030306;28;20100;-46
2023/10/31 01:06:05;;;;;;;3.55;1.80;;;24.80;99.90;;;;;;5030911;28;20179;-46
2023/10/31 01:08:31;;;;;;;7.10;1.63;;;24.70;99.90;;;;;;5031142;28;20036;-46
2023/10/31 01:10:57;;;;;;;6.70;2.08;;;24.70;99.90;;;;;;5032519;28;20108;-45
2023/10/31 01:13:23;;;;;;;7.07;1.80;;;24.70;99.90;;;;;;5031867;28;20056;-46
2023/10/31 01:15:48;;;;;;;7.00;1.45;;;24.70;99.90;;;;;;5032153;28;20041;-46
2023/10/31 01:18:14;;;;;;;4.72;1.98;;;24.70;99.90;;;;;;5032168;28;20029;-47
2023/10/31 01:20:40;;;;;;;3.35;1.63;;;24.70;99.90;;;;;;5032287;28;20070;-47
2023/10/31 01:23:06;;;;;;;4.90;2.45;;;24.70;99.90;;;;;;5031988;28;20026;-46
2023/10/31 01:25:31;;;;;;;1.63;1.30;;;24.70;99.90;;;;;;5030780;28;20017;-46
2023/10/31 01:27:57;;;;;;;3.70;2.03;;;24.70;99.90;;;;;;5031557;28;20029;-48
2023/10/31 01:30:23;;;;;;;7.13;1.63;;;24.70;99.90;;;;;;5031722;28;20136;-49
2023/10/31 01:32:49;;;;;;;3.45;1.60;;;24.70;99.90;;;;;;5030200;28;20029;-48
2023/10/31 01:35:15;;;;;;;2.13;1.20;;;24.70;99.90;;;;;;5032299;28;20120;-48
2023/10/31 01:37:40;;;;;;;2.92;1.60;;;24.70;99.90;;;;;;5032072;28;20037;-48
2023/10/31 01:40:07;;;;;;;4.60;1.60;;;24.70;99.90;;;;;;5032149;28;20025;-47
2023/10/31 01:42:33;;;;;;;2.97;1.57;;;24.70;99.90;;;;;;5014691;28;20032;-48
2023/10/31 01:44:59;;;;;;;4.25;1.75;;;24.70;99.90;;;;;;5014321;28;20480;-48
2023/10/31 01:47:25;;;;;;;3.30;1.67;;;24.70;99.90;;;;;;5032119;28;20029;-48
2023/10/31 01:49:52;;;;;;;3.40;1.50;;;24.70;99.90;;;;;;5014712;28;20036;-48
2023/10/31 01:52:17;;;;;;;3.78;1.42;;;24.70;99.90;;;;;;5032292;28;20017;-48
2023/10/31 01:54:44;;;;;;;1.98;1.52;;;24.70;99.90;;;;;;5031897;28;20512;-48
2023/10/31 01:57:11;;;;;;;3.58;1.45;;;24.60;99.90;;;;;;5032205;28;20021;-48
2023/10/31 01:59:37;;;;;;;3.38;1.38;;;24.60;99.90;;;;;;5032229;28;20484;-48
2023/10/31 02:02:05;;;;;;;7.75;1.67;;;24.60;99.90;;;;;;5032639;28;20065;-47
2023/10/31 02:04:30;;;;;;;2.70;1.45;;;24.60;99.90;;;;;;5031853;28;20041;-47
2023/10/31 02:06:56;;;;;;;1.90;1.27;;;24.60;99.90;;;;;;5031368;28;20025;-47
2023/10/31 02:09:24;;;;;;;2.95;1.70;;;24.60;99.90;;;;;;5031385;28;20410;-47
2023/10/31 02:11:50;;;;;;;3.15;1.40;;;24.60;99.90;;;;;;5014079;28;20025;-47
2023/10/31 02:14:16;;;;;;;2.55;1.20;;;24.50;99.90;;;;;;5031744;28;20402;-46
2023/10/31 02:16:42;;;;;;;2.28;1.30;;;24.50;99.90;;;;;;5024489;28;20473;-46
2023/10/31 02:19:10;;;;;;;2.70;1.40;;;24.50;99.90;;;;;;5031876;28;20109;-47
2023/10/31 02:21:38;;;;;;;;;;;24.50;99.90;;;;;;5029647;28;20477;-47
2023/10/31 02:24:04;;;;;;;3.20;1.27;;;24.50;99.90;;;;;;5013545;28;19959;-47
2023/10/31 02:26:32;;;;;;;3.88;1.48;;;24.50;99.90;;;;;;5031457;28;20108;-47
2023/10/31 02:28:59;;;;;;;2.03;1.20;;;24.40;99.90;;;;;;5031725;28;20022;-46
2023/10/31 02:31:25;;;;;;;2.17;1.15;;;24.40;99.90;;;;;;5031249;28;20432;-47
2023/10/31 02:33:52;;;;;;;2.83;1.47;;;24.40;99.90;;;;;;5029598;28;20298;-47
2023/10/31 02:36:18;;;;;;;3.10;1.20;;;24.40;99.90;;;;;;5031093;28;20496;-46
2023/10/31 02:38:44;;;;;;;2.60;1.30;;;24.40;99.90;;;;;;5035218;28;20449;-46
2023/10/31 02:41:10;;;;;;;4.53;1.08;;;24.30;99.90;;;;;;5034276;28;20036;-46
2023/10/31 02:43:35;;;;;;;2.70;1.23;;;24.30;99.90;;;;;;5034398;28;20021;-45
2023/10/31 02:46:01;;;;;;;3.72;1.50;;;24.30;99.90;;;;;;5035329;28;20044;-45
2023/10/31 02:48:27;;;;;;;3.13;0.93;;;24.30;99.90;;;;;;5034967;28;20028;-46
2023/10/31 02:50:53;;;;;;;2.75;1.15;;;24.30;99.90;;;;;;5035019;28;20124;-46
2023/10/31 02:53:19;;;;;;;3.65;1.55;;;24.30;99.90;;;;;;5035171;28;20029;-46
2023/10/31 02:55:45;;;;;;;2.45;1.20;;;24.30;99.90;;;;;;5034897;28;20034;-46
2023/10/31 02:58:11;;;;;;;2.40;1.00;;;24.30;99.90;;;;;;5034642;28;20045;-46
2023/10/31 03:00:37;;;;;;;2.20;1.15;;;24.30;99.90;;;;;;5035348;28;20195;-46
2023/10/31 03:03:03;;;;;;;4.28;1.70;;;24.30;99.90;;;;;;5034813;28;20070;-46
2023/10/31 03:05:28;;;;;;;6.18;1.17;;;24.30;99.90;;;;;;5034393;28;20029;-45
2023/10/31 03:07:54;;;;;;;2.05;1.10;;;24.20;99.90;;;;;;5034522;28;20080;-46
2023/10/31 03:10:21;;;;;;;2.45;0.98;;;24.20;99.90;;;;;;5017024;28;20029;-45
2023/10/31 03:12:47;;;;;;;2.15;1.58;;;24.20;99.90;;;;;;5034751;28;20389;-46
2023/10/31 03:15:13;;;;;;;3.42;1.27;;;24.30;99.90;;;;;;5016840;28;20481;-46
2023/10/31 03:17:39;;;;;;;3.22;1.23;;;24.20;99.90;;;;;;5016792;28;20457;-45
2023/10/31 03:20:05;;;;;;;5.45;0.98;;;24.20;99.90;;;;;;5034826;28;20067;-46
2023/10/31 03:22:31;;;;;;;2.33;0.85;;;24.20;99.90;;;;;;5034714;28;20428;-46
2023/10/31 03:24:57;;;;;;;3.08;1.60;;;24.20;99.90;;;;;;5034578;28;20029;-46
2023/10/31 03:27:23;;;;;;;1.40;1.00;;;24.20;99.90;;;;;;5034592;28;20030;-46
2023/10/31 03:29:49;;;;;;;2.13;1.20;;;24.20;99.90;;;;;;5034381;28;20029;-46
2023/10/31 03:32:15;;;;;;;7.25;1.65;;;24.20;99.90;;;;;;5034002;28;20036;-46
2023/10/31 03:34:41;;;;;;;3.20;1.25;;;24.20;99.90;;;;;;5034164;28;20030;-46
2023/10/31 03:37:07;;;;;;;5.65;1.13;;;24.20;99.90;;;;;;5034596;28;20087;-46
2023/10/31 03:39:33;;;;;;;2.72;1.38;;;24.20;99.90;;;;;;5034447;28;20389;-46
2023/10/31 03:41:59;;;;;;;2.90;1.20;;;24.20;99.90;;;;;;5034282;28;20033;-46
2023/10/31 03:44:25;;;;;;;3.20;0.98;;;24.20;99.90;;;;;;5034235;28;20021;-46
2023/10/31 03:46:51;;;;;;;2.10;1.30;;;24.20;99.90;;;;;;5033921;28;20039;-46
2023/10/31 03:49:17;;;;;;;2.22;1.00;;;24.20;99.90;;;;;;5033885;28;20033;-46
2023/10/31 03:51:43;;;;;;;1.73;0.90;;;24.20;99.90;;;;;;5034062;28;20101;-46
2023/10/31 03:54:09;;;;;;;2.05;1.00;;;24.20;99.90;;;;;;5016328;28;20025;-46
2023/10/31 03:56:42;;;;;;;3.60;1.05;;;24.20;99.90;;;;;;5033760;28;20026;-46
2023/10/31 03:59:08;;;;;;;2.95;0.90;;;24.20;99.90;;;;;;5033553;28;20025;-46
2023/10/31 04:01:33;;;;;;;2.90;0.95;;;24.20;99.90;;;;;;5033987;28;20079;-46
2023/10/31 04:03:59;;;;;;;1.50;0.90;;;24.20;99.90;;;;;;5033435;28;20477;-46
2023/10/31 04:06:25;;;;;;;2.05;1.48;;;24.20;99.90;;;;;;5033690;28;20036;-46
2023/10/31 04:08:51;;;;;;;1.90;1.00;;;24.20;99.90;;;;;;5015512;28;20106;-46
2023/10/31 04:11:16;;;;;;;1.85;0.85;;;24.20;99.90;;;;;;5033618;28;20748;-47
2023/10/31 04:13:42;;;;;;;1.48;1.00;;;24.10;99.90;;;;;;5033700;28;20034;-46
2023/10/31 04:16:08;;;;;;;2.13;0.80;;;24.10;99.90;;;;;;5015896;28;20041;-46
2023/10/31 04:18:34;;;;;;;1.85;0.85;;;24.10;99.90;;;;;;5033370;28;20021;-45
2023/10/31 04:20:59;;;;;;;2.55;1.10;;;24.10;99.90;;;;;;5033449;28;20112;-45
2023/10/31 04:23:25;;;;;;;1.80;0.80;;;24.10;99.90;;;;;;5033378;28;20025;-45
2023/10/31 04:25:52;;;;;;;2.28;1.15;;;24.10;99.90;;;;;;5033489;28;20028;-45
2023/10/31 04:28:18;;;;;;;1.53;1.03;;;24.10;99.90;;;;;;5033378;28;20037;-44
2023/10/31 04:30:44;;;;;;;1.42;0.95;;;24.10;99.90;;;;;;5033367;28;20537;-45
2023/10/31 04:33:10;;;;;;;1.65;0.93;;;24.10;99.90;;;;;;5033403;28;20065;-45
2023/10/31 04:35:36;;;;;;;3.47;1.10;;;24.10;99.90;;;;;;5033222;28;20116;-45
2023/10/31 04:38:01;;;;;;;4.57;0.85;;;24.10;99.90;;;;;;5012865;28;20044;-45
2023/10/31 04:40:27;;;;;;;1.67;0.80;;;24.10;99.90;;;;;;5012929;28;20057;-45
2023/10/31 04:42:54;;;;;;;1.90;0.90;;;24.10;99.90;;;;;;5013213;28;20022;-45
2023/10/31 04:45:19;;;;;;;4.57;1.13;;;24.10;99.90;;;;;;5012898;28;20436;-45
2023/10/31 04:47:45;;;;;;;2.22;0.90;;;24.10;99.90;;;;;;4995621;28;20060;-45
2023/10/31 04:50:11;;;;;;;1.50;0.90;;;24.10;99.90;;;;;;5013304;28;20026;-45
2023/10/31 04:52:37;;;;;;;3.42;1.42;;;24.10;99.90;;;;;;5015440;28;20096;-46
2023/10/31 04:55:03;;;;;;;2.13;0.85;;;24.10;99.90;;;;;;5012276;28;20034;-45
2023/10/31 04:57:28;;;;;;;1.70;1.02;;;24.10;99.90;;;;;;5011796;28;20022;-45
2023/10/31 04:59:55;;;;;;;2.47;1.15;;;24.10;99.90;;;;;;5012319;28;20022;-45
2023/10/31 05:02:23;;;;;;;2.53;1.00;;;24.10;99.90;;;;;;5013811;28;20501;-47
2023/10/31 05:04:50;;;;;;;2.60;1.00;;;24.00;99.90;;;;;;5023067;28;20033;-45
2023/10/31 05:07:17;;;;;;;3.63;1.10;;;24.10;99.90;;;;;;5031567;28;20084;-47
2023/10/31 05:09:43;;;;;;;2.78;0.70;;;24.10;99.90;;;;;;5025118;28;20030;-46
2023/10/31 05:12:09;;;;;;;1.33;1.00;;;24.10;99.90;;;;;;5036365;28;20032;-46
2023/10/31 05:14:35;;;;;;;5.13;1.00;;;24.10;99.90;;;;;;5031358;28;20037;-46
2023/10/31 05:17:01;;;;;;;4.65;1.02;;;24.10;99.90;;;;;;5031969;28;20439;-45
2023/10/31 05:19:27;;;;;;;1.42;1.00;;;24.10;99.90;;;;;;5029486;28;20326;-47
2023/10/31 05:21:52;;;;;;;3.15;1.20;;;24.10;99.90;;;;;;5032337;28;20115;-45
2023/10/31 05:24:18;;;;;;;3.15;1.17;;;24.10;99.90;;;;;;5032389;28;20029;-45
2023/10/31 05:26:44;;;;;;;1.67;0.98;;;24.10;99.90;;;;;;5032429;28;20021;-45
2023/10/31 05:29:13;;;;;;;3.35;1.23;;;24.10;99.90;;;;;;5031578;28;20104;-45
2023/10/31 05:31:41;;;;;;;1.95;1.27;;;24.10;99.90;;;;;;5032546;28;20028;-45
2023/10/31 05:34:07;;;;;;;;;;;24.10;99.90;;;;;;5032616;28;20219;-45
2023/10/31 05:36:33;;;;;;;1.88;1.02;;;24.10;99.90;;;;;;5032244;28;19948;-46
2023/10/31 05:38:59;;;;;;;2.50;1.00;;;24.10;99.90;;;;;;5032110;28;20025;-45
2023/10/31 05:41:24;;;;;;;1.42;0.93;;;24.00;99.90;;;;;;5014086;28;20029;-44
2023/10/31 05:43:50;;;;;;;4.22;1.13;;;24.00;99.90;;;;;;5032153;28;20033;-45
2023/10/31 05:46:16;;;;;;;3.22;1.30;;;24.00;99.90;;;;;;5032123;28;20155;-45
2023/10/31 05:48:45;;;;;;;2.08;0.90;;;24.00;99.90;;;;;;5032333;28;20029;-45
2023/10/31 05:51:12;;;;;;;4.90;1.23;;;24.00;99.90;;;;;;5032279;28;20025;-45
2023/10/31 05:53:39;;;;;;;;;;;24.00;99.90;;;;;;5032522;28;20017;-45
2023/10/31 05:56:07;;;;;;;3.17;1.03;;;24.00;99.90;;;;;;5031990;28;19917;-45
2023/10/31 05:58:33;;;;;;;2.53;0.95;;;24.00;99.90;;;;;;5014643;28;20018;-45
2023/10/31 06:00:58;;;;;;;6.63;1.20;;;24.00;99.90;;;;;;5025894;28;20069;-45
2023/10/31 06:03:24;;;;;;;4.88;1.25;;;24.00;99.90;;;;;;5012160;28;20030;-45
2023/10/31 06:05:50;;;;;;;1.77;1.08;;;24.00;99.90;;;;;;5026561;28;20050;-45
2023/10/31 06:08:16;;;;;;;3.53;1.42;;;24.00;99.90;;;;;;5022017;28;20026;-45
2023/10/31 06:10:42;;;;;;;5.85;1.50;;;24.00;99.90;;;;;;5031757;28;20072;-45
2023/10/31 06:13:07;;;;;;;3.53;1.38;;;24.00;99.90;;;;;;5035356;28;20036;-44
2023/10/31 06:15:33;;;;;;;4.05;1.17;;;24.00;99.90;;;;;;5034369;28;20632;-45
2023/10/31 06:17:59;;;;;;;4.07;1.05;;;24.00;99.90;;;;;;5035881;28;20030;-45
2023/10/31 06:20:25;;;;;;;2.90;1.10;;;24.00;99.90;;;;;;5035762;28;20025;-45
2023/10/31 06:22:51;;;;;;;2.33;1.05;;;24.00;99.90;;;;;;5035649;28;20049;-45
2023/10/31 06:25:17;;;;;;;3.88;1.08;;;24.00;99.90;;;;;;5035782;28;20524;-45
2023/10/31 06:27:43;;;;;;;2.95;1.17;;;24.00;99.90;;;;;;5035565;28;20469;-46
2023/10/31 06:30:09;;;;;;;3.90;1.08;;;24.00;99.90;;;;;;5035523;28;20040;-47
2023/10/31 06:32:36;;;;;;;2.00;1.13;;;24.00;99.90;;;;;;5035622;28;20018;-46
2023/10/31 06:35:02;;;;;;;2.95;1.20;;;24.00;99.90;;;;;;5035510;28;20025;-46
2023/10/31 06:37:28;;;;;;;2.85;1.40;;;24.00;99.90;;;;;;5035590;28;20037;-45
2023/10/31 06:39:54;;;;;;;3.20;1.17;;;24.00;99.90;;;;;;5035284;28;20101;-45
2023/10/31 06:42:20;;;;;;;5.45;1.05;;;24.00;99.90;;;;;;5034459;28;20029;-46
2023/10/31 06:44:46;;;;;;;2.92;1.38;;;24.00;99.90;;;;;;5035382;28;20038;-46
2023/10/31 06:47:12;;;;;;;3.05;1.23;;;24.00;99.90;;;;;;5035676;28;20025;-46
2023/10/31 06:49:37;;;;;;;2.83;1.55;;;24.00;99.90;;;;;;5035177;28;20060;-46
2023/10/31 06:52:04;;;;;;;2.17;1.30;;;24.00;99.90;;;;;;5035208;28;20048;-46
2023/10/31 06:54:31;;;;;;;5.32;1.50;;;24.00;99.90;;;;;;5034999;28;20445;-46
2023/10/31 06:56:57;;;;;;;7.23;1.57;;;24.00;99.90;;;;;;5035051;28;20198;-46
2023/10/31 06:59:23;;;;;;;2.15;1.17;;;24.00;99.90;;;;;;5035157;28;20041;-46
2023/10/31 07:01:49;;;;;;;5.57;1.17;;;24.00;99.90;;;;;;5034756;28;20099;-46
2023/10/31 07:04:16;;;;;;;4.05;1.60;;;24.00;99.90;;;;;;5035133;28;20083;-47
2023/10/31 07:06:42;;;;;;;2.33;1.20;;;23.90;99.90;;;;;;5034867;28;20061;-45
2023/10/31 07:09:09;;;;;;;2.15;1.38;;;23.90;99.90;;;;;;5034680;28;20061;-44
2023/10/31 07:11:35;;;;;;;4.65;1.70;;;23.90;99.90;;;;;;5034781;28;20028;-45
2023/10/31 07:14:03;;;;;;;5.70;1.80;;;23.90;99.90;;;;;;5034690;28;20113;-46
2023/10/31 07:16:29;;;;;;;3.28;1.80;;;23.90;99.90;;;;;;5034855;28;20112;-45
2023/10/31 07:18:55;;;;;;;2.97;1.80;;;23.90;99.90;;;;;;5033947;28;20131;-45
2023/10/31 07:21:21;;;;;;;4.60;1.13;;;23.90;99.90;;;;;;5033767;28;20112;-46
2023/10/31 07:23:47;;;;;;;6.35;1.73;;;23.90;99.90;;;;;;5034734;28;20051;-45
2023/10/31 07:26:13;;;;;;;6.15;1.63;;;23.90;99.90;;;;;;5034543;28;20091;-46
2023/10/31 07:28:38;;;;;;;5.90;1.42;;;23.90;99.90;;;;;;5034391;28;20065;-45
2023/10/31 07:31:05;;;;;;;7.40;1.83;;;23.90;99.90;;;;;;5034323;28;20022;-45
2023/10/31 07:33:30;;;;;;;8.52;1.77;;;23.90;99.90;;;;;;5034312;28;20477;-44
2023/10/31 07:35:56;;;;;;;3.83;1.77;;;23.90;99.90;;;;;;5034271;28;20052;-44
2023/10/31 07:38:22;;;;;;;7.38;2.17;;;23.90;99.90;;;;;;5034106;28;20025;-45
2023/10/31 07:40:48;;;;;;;4.78;1.75;;;23.90;99.90;;;;;;5034340;28;20035;-47
2023/10/31 07:43:15;;;;;;;4.88;1.70;;;23.90;99.90;;;;;;5034249;28;20028;-46
2023/10/31 07:45:41;;;;;;;5.50;1.80;;;23.90;99.90;;;;;;5016555;28;20029;-45
2023/10/31 07:48:08;;;;;;;3.53;1.55;;;23.90;99.90;;;;;;5033455;28;20031;-45
2023/10/31 07:50:34;;;;;;;4.28;1.90;;;23.90;99.90;;;;;;5033455;28;20022;-45
2023/10/31 07:53:00;;;;;;;4.70;1.95;;;23.90;99.90;;;;;;5033385;28;20029;-45
2023/10/31 07:55:26;;;;;;;4.30;2.10;;;23.90;99.90;;;;;;5033848;28;20043;-47
2023/10/31 07:57:51;;;;;;;2.72;1.58;;;23.90;99.90;;;;;;5033845;28;20425;-46
2023/10/31 08:00:17;;;;;;;5.00;1.50;;;23.90;99.90;;;;;;5034026;28;20025;-44
2023/10/31 08:02:43;;;;;;;3.17;1.55;;;23.90;99.90;;;;;;5014039;28;20038;-46
2023/10/31 08:05:10;;;;;;;3.55;1.58;;;23.90;99.90;;;;;;5014064;28;20101;-46
2023/10/31 08:07:36;;;;;;;2.78;1.65;;;23.90;99.90;;;;;;5013813;28;20474;-44
2023/10/31 08:10:03;;;;;;;9.13;2.30;;;23.90;99.90;;;;;;5013914;28;20037;-46
2023/10/31 08:12:29;;;;;;;6.75;1.77;;;23.90;99.90;;;;;;5013919;28;20014;-44
2023/10/31 08:14:55;;;;;;;4.93;1.77;;;23.90;99.90;;;;;;5013303;28;20132;-44
2023/10/31 08:17:21;;;;;;;5.00;1.60;;;23.90;99.90;;;;;;5013996;28;20092;-46
2023/10/31 08:19:49;;;;;;;4.65;1.85;;;24.00;99.90;;;;;;5013888;28;20029;-46
2023/10/31 08:22:16;;;;;;;3.13;1.67;;;24.00;99.90;;;;;;5012347;28;20030;-47
2023/10/31 08:24:42;;;;;;;1.88;1.45;;;23.90;99.90;;;;;;5013653;28;20037;-46
2023/10/31 08:27:08;;;;;;;6.18;1.95;;;24.00;99.90;;;;;;5013593;28;20030;-46
2023/10/31 08:29:33;;;;;;;3.42;1.88;;;24.00;99.90;;;;;;5013510;28;20025;-45
2023/10/31 08:31:59;;;;;;;4.03;1.90;;;24.00;99.90;;;;;;5012722;28;20065;-45
2023/10/31 08:34:25;;;;;;;5.03;1.90;;;24.00;99.90;;;;;;5012816;28;20061;-45
2023/10/31 08:36:52;;;;;;;4.78;1.65;;;24.00;99.90;;;;;;5012152;28;20022;-46
2023/10/31 08:39:18;;;;;;;3.75;1.60;;;24.00;99.90;;;;;;5013581;28;20093;-47
2023/10/31 08:41:58;;;;;;;5.93;1.70;;;24.00;99.90;;;;;;5012375;28;20064;-45
2023/10/31 08:44:24;;;;;;;9.77;1.85;;;24.00;99.90;;;;;;5012965;28;20022;-46
2023/10/31 08:46:49;;;;;;;10.95;2.15;;;24.00;99.90;;;;;;5013245;28;20025;-46
2023/10/31 08:49:17;;;;;;;7.85;2.00;;;24.00;99.90;;;;;;5013014;28;20409;-46
2023/10/31 08:51:44;;;;;;;;;;;24.00;99.90;;;;;;5013493;28;20049;-46
2023/10/31 08:54:10;;;;;;;6.00;1.73;;;24.00;99.90;;;;;;5012958;28;19960;-48
2023/10/31 08:56:36;;;;;;;6.63;1.88;;;24.00;99.90;;;;;;5011714;28;20025;-46
2023/10/31 08:59:02;;;;;;;3.83;2.05;;;24.00;99.90;;;;;;5013006;28;20076;-47
2023/10/31 09:01:30;;;;;;;5.88;1.80;;;24.00;99.90;;;;;;5022323;28;20191;-48
2023/10/31 09:03:58;;;;;;;10.40;1.67;;;24.00;99.90;;;;;;5032309;28;20414;-47
2023/10/31 09:06:24;;;;;;;4.57;1.70;;;24.00;99.90;;;;;;5032618;28;20029;-45
2023/10/31 09:08:50;;;;;;;4.55;2.22;;;24.00;99.90;;;;;;5032746;28;20017;-45
2023/10/31 09:11:15;;;;;;;3.85;1.83;;;24.00;99.90;;;;;;5032532;28;20029;-46
2023/10/31 09:13:41;;;;;;;5.40;1.90;;;24.00;99.90;;;;;;5032566;28;20021;-46
2023/10/31 09:16:08;;;;;;;6.32;2.80;;;24.00;99.90;;;;;;5013809;28;20132;-48
2023/10/31 09:18:34;;;;;;;5.93;1.65;;;24.00;99.90;;;;;;5032278;28;20103;-46
2023/10/31 09:21:00;;;;;;;7.70;2.08;;;24.00;99.90;;;;;;5032372;28;20031;-47
2023/10/31 09:23:26;;;;;;;5.53;2.10;;;24.10;99.90;;;;;;5014555;28;20017;-46
2023/10/31 09:25:52;;;;;;;9.93;2.33;;;24.10;99.90;;;;;;5032569;28;20049;-47
2023/10/31 09:28:18;;;;;;;5.50;2.03;;;24.10;99.90;;;;;;5032309;28;20033;-46
2023/10/31 09:30:43;;;;;;;5.68;2.45;;;24.00;99.90;;;;;;5032084;28;20017;-46
2023/10/31 09:33:09;;;;;;;7.22;2.35;;;24.10;99.90;;;;;;5032098;28;20052;-47
2023/10/31 09:35:35;;;;;;;5.80;2.05;;;24.00;99.90;;;;;;5032194;28;20048;-46
2023/10/31 09:38:01;;;;;;;13.23;2.38;;;24.10;99.90;;;;;;5032283;28;20116;-47
2023/10/31 09:40:27;;;;;;;5.53;1.83;;;24.10;99.90;;;;;;5032230;28;20049;-46
2023/10/31 09:42:52;;;;;;;4.88;1.95;;;24.10;99.90;;;;;;5031930;28;20056;-47
2023/10/31 09:45:18;;;;;;;8.70;1.88;;;24.10;99.90;;;;;;5032171;28;20490;-46
2023/10/31 09:47:44;;;;;;;3.80;1.83;;;24.10;99.90;;;;;;5036092;28;20425;-46
2023/10/31 09:50:11;;;;;;;6.43;2.10;;;24.10;99.90;;;;;;5036188;28;20101;-44
2023/10/31 09:52:37;;;;;;;6.30;2.30;;;24.10;99.90;;;;;;5036189;28;20378;-45
2023/10/31 09:55:05;;;;;;;6.72;2.03;;;24.10;99.90;;;;;;5035828;28;20030;-45
2023/10/31 09:57:31;;;;;;;4.45;2.00;;;24.10;99.90;;;;;;5036152;28;20025;-46
2023/10/31 09:59:57;;;;;;;5.55;2.35;;;24.10;99.90;;;;;;5036261;28;20026;-46
2023/10/31 10:02:23;;;;;;;8.13;2.53;;;24.10;99.90;;;;;;5035588;28;20056;-46
2023/10/31 10:04:49;;;;;;;5.55;2.08;;;24.10;99.90;;;;;;5035949;28;20029;-47
2023/10/31 10:07:19;;;;;;;6.60;2.55;;;24.20;99.90;;;;;;5036048;28;20028;-47
2023/10/31 10:09:48;;;;;;;3.08;1.88;;;24.10;99.90;;;;;;5035951;28;20545;-46
2023/10/31 10:12:15;;;;;;;4.18;2.00;;;24.10;99.90;;;;;;5035810;28;20024;-47
2023/10/31 10:14:42;;;;;;;7.57;1.95;;;24.20;99.90;;;;;;5035717;28;20025;-46
2023/10/31 10:17:21;;;;;;;6.47;1.88;;;24.20;99.90;;;;;;5035684;28;20030;-48
2023/10/31 10:19:47;;;;;;;5.05;1.98;;;24.10;99.90;;;;;;5035649;28;20093;-46
2023/10/31 10:22:14;;;;;;;6.07;2.22;;;24.20;99.90;;;;;;5035693;28;20100;-46
2023/10/31 10:24:41;;;;;;;4.80;1.85;;;24.20;99.90;;;;;;5035482;28;20017;-48
2023/10/31 10:27:08;;;;;;;4.35;1.83;;;24.20;99.90;;;;;;5035418;28;20551;-47
2023/10/31 10:29:35;;;;;;;11.10;2.25;;;24.20;99.90;;;;;;5035203;28;20021;-45
2023/10/31 10:32:01;;;;;;;4.57;2.15;;;24.20;99.90;;;;;;5035533;28;20390;-47
2023/10/31 10:34:27;;;;;;;6.25;2.10;;;24.20;99.90;;;;;;5035574;28;20142;-48
2023/10/31 10:36:56;;;;;;;7.60;2.30;;;24.30;99.90;;;;;;5017645;28;20573;-48
2023/10/31 10:39:23;;;;;;;6.28;1.92;;;24.30;99.90;;;;;;5035269;28;20025;-50
2023/10/31 10:41:57;;;;;;;7.47;1.63;;;24.30;99.90;;;;;;5035144;28;20021;-45
2023/10/31 10:44:38;;;;;;;4.22;1.77;;;24.30;99.90;;;;;;5035270;28;20020;-48
2023/10/31 10:47:06;;;;;;;4.28;1.65;;;24.40;99.90;;;;;;5035207;28;20494;-48
2023/10/31 10:49:37;;;;;;;5.25;1.67;;;24.40;99.90;;;;;;5035318;28;20052;-49
2023/10/31 10:52:22;;;;;;;5.05;2.13;;;24.50;99.90;;;;;;5035200;28;20033;-47
2023/10/31 10:54:59;;;;;;;3.35;1.80;;;24.50;99.90;;;;;;5034984;28;20359;-48
2023/10/31 10:57:47;;;;;;;8.80;1.98;;;24.60;99.90;;;;;;5034289;28;20021;-47
2023/10/31 11:00:15;;;;;;;6.65;2.22;;;24.60;99.90;;;;;;5016104;28;20034;-48
2023/10/31 11:02:43;;;;;;;6.68;2.10;;;24.70;99.90;;;;;;5034708;28;20103;-49
2023/10/31 11:05:10;;;;;;;3.75;1.50;;;24.70;99.90;;;;;;5033991;28;20144;-51
2023/10/31 11:07:38;;;;;;;6.20;1.88;;;24.70;99.90;;;;;;5034701;28;20431;-47
2023/10/31 11:10:05;;;;;;;3.03;1.38;;;24.70;99.90;;;;;;5034910;28;20057;-47
2023/10/31 11:12:32;;;;;;;5.40;1.60;;;24.70;99.90;;;;;;5034857;28;20034;-47
2023/10/31 11:15:00;;;;;;;4.90;1.77;;;24.70;99.90;;;;;;5034739;28;20117;-47
2023/10/31 11:17:39;;;;;;;3.30;1.50;;;24.60;99.90;;;;;;5034709;28;20382;-46
2023/10/31 11:20:09;;;;;;;4.53;1.45;;;24.60;99.90;;;;;;5034602;28;20024;-46
2023/10/31 11:22:42;;;;;;;5.93;1.75;;;24.50;99.90;;;;;;5034147;28;20029;-47
2023/10/31 11:25:18;;;;;;;4.47;1.80;;;24.50;99.90;;;;;;5034205;28;20043;-46
2023/10/31 11:27:43;;;;;;;3.25;1.20;;;24.50;99.90;;;;;;5034000;28;20036;-47
2023/10/31 11:30:32;;;;;;;5.50;1.60;;;24.50;99.90;;;;;;5033564;28;20029;-47
2023/10/31 11:33:00;;;;;;;4.97;1.38;;;24.40;99.90;;;;;;5034555;28;20029;-47
2023/10/31 11:35:30;;;;;;;4.80;1.67;;;24.40;99.90;;;;;;5034293;28;20037;-46
2023/10/31 11:38:10;;;;;;;3.50;1.30;;;24.40;99.90;;;;;;5034333;28;20099;-45
2023/10/31 11:40:38;;;;;;;7.50;1.30;;;24.40;99.90;;;;;;5034105;28;20087;-45
2023/10/31 11:43:06;;;;;;;7.55;1.50;;;24.40;99.90;;;;;;5034119;28;20022;-45
2023/10/31 11:45:49;;;;;;;8.32;1.55;;;24.30;99.90;;;;;;5034107;28;20029;-46
2023/10/31 11:48:15;;;;;;;5.68;1.80;;;24.30;99.90;;;;;;5033857;28;20022;-45
2023/10/31 11:50:42;;;;;;;3.33;1.67;;;24.30;99.90;;;;;;5033773;28;20030;-45
2023/10/31 11:53:12;;;;;;;7.03;1.80;;;24.30;99.90;;;;;;5033249;28;20067;-45
2023/10/31 11:55:43;;;;;;;3.03;1.20;;;24.30;99.90;;;;;;5033041;28;20037;-44
2023/10/31 11:58:15;;;;;;;7.70;1.88;;;24.20;99.90;;;;;;5015164;28;20064;-44
2023/10/31 12:00:41;;;;;;;6.97;1.55;;;24.20;99.90;;;;;;5032424;28;20068;-47
2023/10/31 12:03:06;;;;;;;8.50;1.80;;;24.10;99.90;;;;;;5033574;28;20461;-45
2023/10/31 12:05:32;;;;;;;5.45;1.27;;;24.00;99.90;;;;;;5033850;28;20025;-53
2023/10/31 12:07:58;;;;;;;6.18;1.30;;;23.80;99.90;;;;;;5015911;28;20056;-45
2023/10/31 12:10:26;;;;;;;17.90;2.30;;;23.70;99.90;;;;;;5032753;28;20446;-44
2023/10/31 12:12:53;;;;;;;7.15;1.73;;;23.70;99.90;;;;;;5015856;28;20032;-46
2023/10/31 12:15:19;;;;;;;12.40;2.25;;;23.70;99.90;;;;;;5033496;28;20397;-45
2023/10/31 12:17:45;;;;;;;10.18;1.65;;;23.70;99.90;;;;;;5033361;28;20470;-47
2023/10/31 12:20:11;;;;;;;7.50;1.63;;;23.80;99.90;;;;;;5033555;28;20033;-46
2023/10/31 12:22:37;;;;;;;10.10;2.42;;;23.80;99.90;;;;;;5033063;28;20022;-46
2023/10/31 12:25:08;;;;;;;5.90;1.58;;;23.90;99.90;;;;;;5032798;28;20474;-47
2023/10/31 12:27:47;;;;;;;8.80;1.50;;;23.90;99.90;;;;;;5033039;28;20033;-48
2023/10/31 12:30:15;;;;;;;7.32;1.92;;;23.90;99.90;;;;;;5032733;28;20022;-45
2023/10/31 12:32:44;;;;;;;9.52;2.40;;;24.00;99.90;;;;;;5032596;28;20021;-45
2023/10/31 12:35:16;;;;;;;7.95;1.75;;;24.10;99.90;;;;;;5032647;28;20037;-45
2023/10/31 12:37:47;;;;;;;3.90;2.03;;;24.10;99.90;;;;;;5033117;28;20151;-45
2023/10/31 12:40:20;;;;;;;5.65;1.92;;;24.10;99.90;;;;;;5032676;28;20112;-44
2023/10/31 12:42:48;;;;;;;5.80;1.75;;;24.10;99.90;;;;;;5015270;28;20432;-44
2023/10/31 12:45:14;;;;;;;11.07;2.50;;;24.10;99.90;;;;;;5033090;28;20064;-44